createdAt,value
2018-09-27T00:00:32.583Z,58.00
2018-09-27T00:03:01.401Z,58.30
2018-09-27T00:05:29.896Z,58.10
2018-09-27T00:07:58.431Z,57.60
2018-09-27T00:10:26.923Z,58.40
2018-09-27T00:12:55.399Z,59.10
2018-09-27T00:15:23.921Z,57.90
2018-09-27T00:17:52.405Z,57.50
2018-09-27T00:20:20.900Z,57.50
2018-09-27T00:22:49.439Z,59.10
2018-09-27T00:25:17.896Z,59.80
2018-09-27T00:27:46.376Z,58.70
2018-09-27T00:30:14.888Z,59.50
2018-09-27T00:32:43.385Z,59.80
2018-09-27T00:35:11.908Z,59.50
2018-09-27T00:37:40.380Z,61.40
2018-09-27T00:40:08.827Z,62.40
2018-09-27T00:42:37.307Z,62.00
2018-09-27T00:45:06.095Z,60.80
2018-09-27T00:47:34.654Z,59.40
2018-09-27T00:50:03.173Z,61.10
2018-09-27T00:52:31.639Z,61.60
2018-09-27T00:55:00.363Z,59.80
2018-09-27T00:57:28.886Z,60.80
2018-09-27T00:59:57.414Z,63.30
2018-09-27T01:02:25.932Z,63.20
2018-09-27T01:04:54.468Z,63.70
2018-09-27T01:07:23.008Z,61.60
2018-09-27T01:09:51.532Z,61.70
2018-09-27T01:12:20.038Z,61.20
2018-09-27T01:14:48.517Z,62.30
2018-09-27T01:17:17.092Z,63.10
2018-09-27T01:19:45.911Z,60.60
2018-09-27T01:22:14.432Z,59.70
2018-09-27T01:24:42.931Z,58.50
2018-09-27T01:27:11.478Z,58.80
2018-09-27T01:29:40.021Z,59.10
2018-09-27T01:32:08.605Z,58.70
2018-09-27T01:34:37.156Z,59.10
2018-09-27T01:37:05.916Z,58.10
2018-09-27T01:39:34.403Z,58.10
2018-09-27T01:42:02.915Z,58.00
2018-09-27T01:44:31.423Z,58.40
2018-09-27T01:46:59.945Z,59.00
2018-09-27T01:49:28.483Z,58.60
2018-09-27T01:51:56.960Z,60.40
2018-09-27T01:54:25.464Z,59.30
2018-09-27T01:56:54.295Z,59.80
2018-09-27T01:59:27.138Z,59.10
2018-09-27T02:01:55.730Z,61.10
2018-09-27T02:04:24.336Z,60.00
2018-09-27T02:06:52.931Z,60.70
2018-09-27T02:09:21.517Z,59.80
2018-09-27T02:11:50.101Z,59.00
2018-09-27T02:14:19.025Z,60.00
2018-09-27T02:16:47.970Z,61.10
2018-09-27T02:19:17.121Z,60.10
2018-09-27T02:21:45.965Z,59.20
2018-09-27T02:24:14.554Z,58.80
2018-09-27T02:26:43.161Z,59.20
2018-09-27T02:29:11.754Z,59.50
2018-09-27T02:31:40.377Z,59.20
2018-09-27T02:34:08.950Z,58.30
2018-09-27T02:36:37.529Z,59.60
2018-09-27T02:39:08.601Z,59.00
2018-09-27T02:41:37.197Z,59.60
2018-09-27T02:44:06.007Z,59.00
2018-09-27T02:46:34.596Z,58.70
2018-09-27T02:49:03.347Z,59.30
2018-09-27T02:51:31.966Z,59.50
2018-09-27T02:54:00.567Z,58.80
2018-09-27T02:56:29.137Z,57.80
2018-09-27T02:58:57.728Z,58.20
2018-09-27T03:01:26.319Z,58.10
2018-09-27T03:03:54.932Z,57.50
2018-09-27T03:06:23.487Z,57.80
2018-09-27T03:08:52.395Z,58.00
2018-09-27T03:11:20.946Z,58.20
2018-09-27T03:13:49.567Z,58.70
2018-09-27T03:16:18.134Z,58.00
2018-09-27T03:18:46.716Z,58.20
2018-09-27T03:21:15.302Z,58.30
2018-09-27T03:23:43.858Z,58.20
2018-09-27T03:26:12.482Z,58.90
2018-09-27T03:28:41.776Z,58.70
2018-09-27T03:31:10.364Z,59.30
2018-09-27T03:33:38.958Z,59.20
2018-09-27T03:36:07.552Z,58.80
2018-09-27T03:38:36.139Z,58.80
2018-09-27T03:41:04.748Z,59.40
2018-09-27T03:43:33.654Z,60.20
2018-09-27T03:46:02.274Z,60.00
2018-09-27T03:48:30.849Z,61.60
2018-09-27T03:50:59.429Z,60.60
2018-09-27T03:53:28.042Z,60.30
2018-09-27T03:55:56.678Z,62.00
2018-09-27T03:58:25.263Z,62.20
2018-09-27T04:00:53.836Z,63.70
2018-09-27T04:03:22.439Z,62.40
2018-09-27T04:05:51.031Z,62.60
2018-09-27T04:08:19.611Z,60.70
2018-09-27T04:10:48.212Z,62.10
2018-09-27T04:13:16.785Z,60.10
2018-09-27T04:15:45.436Z,59.20
2018-09-27T04:18:13.858Z,60.40
2018-09-27T04:20:47.667Z,60.90
2018-09-27T04:23:17.465Z,62.40
2018-09-27T04:25:46.067Z,61.90
2018-09-27T04:28:14.652Z,61.70
2018-09-27T04:30:43.220Z,61.30
2018-09-27T04:33:11.809Z,60.60
2018-09-27T04:35:40.374Z,61.10
2018-09-27T04:38:08.946Z,61.20
2018-09-27T04:40:37.914Z,60.10
2018-09-27T04:43:06.509Z,62.40
2018-09-27T04:45:35.102Z,62.90
2018-09-27T04:48:03.709Z,59.30
2018-09-27T04:50:32.317Z,59.70
2018-09-27T04:53:00.961Z,60.20
2018-09-27T04:55:29.825Z,60.60
2018-09-27T04:57:58.384Z,62.40
2018-09-27T05:00:27.291Z,62.10
2018-09-27T05:02:55.834Z,61.80
2018-09-27T05:05:24.725Z,60.80
2018-09-27T05:07:53.282Z,61.90
2018-09-27T05:10:21.866Z,60.90
2018-09-27T05:12:50.793Z,61.10
2018-09-27T05:15:19.423Z,60.80
2018-09-27T05:17:48.018Z,62.10
2018-09-27T05:20:16.622Z,62.20
2018-09-27T05:22:45.375Z,63.40
2018-09-27T05:25:14.305Z,65.50
2018-09-27T05:27:42.945Z,63.00
2018-09-27T05:30:11.489Z,63.50
2018-09-27T05:32:40.439Z,63.00
2018-09-27T05:35:09.040Z,64.60
2018-09-27T05:37:37.638Z,63.40
2018-09-27T05:40:06.682Z,64.30
2018-09-27T05:42:35.264Z,64.70
2018-09-27T05:45:03.925Z,65.30
2018-09-27T05:47:32.530Z,65.10
2018-09-27T05:50:01.175Z,66.50
2018-09-27T05:52:29.759Z,66.40
2018-09-27T05:54:58.622Z,65.80
2018-09-27T05:57:27.217Z,65.50
2018-09-27T05:59:55.802Z,65.20
2018-09-27T06:02:24.488Z,66.60
2018-09-27T06:04:53.043Z,65.40
2018-09-27T06:07:21.641Z,66.00
2018-09-27T06:09:50.221Z,65.50
2018-09-27T06:12:18.833Z,67.50
2018-09-27T06:14:47.400Z,66.20
2018-09-27T06:17:16.019Z,66.40
2018-09-27T06:19:44.616Z,65.40
2018-09-27T06:22:13.493Z,64.40
2018-09-27T06:24:42.053Z,65.10
2018-09-27T06:27:10.673Z,65.70
2018-09-27T06:29:39.230Z,65.10
2018-09-27T06:32:07.875Z,63.90
2018-09-27T06:34:36.735Z,63.60
2018-09-27T06:37:05.395Z,63.80
2018-09-27T06:39:33.999Z,63.80
2018-09-27T06:42:02.582Z,64.90
2018-09-27T06:44:31.157Z,64.20
2018-09-27T06:46:59.757Z,63.30
2018-09-27T06:49:28.589Z,63.20
2018-09-27T06:51:57.158Z,63.80
2018-09-27T06:54:25.732Z,63.80
2018-09-27T06:56:54.818Z,63.60
2018-09-27T06:59:23.407Z,63.40
2018-09-27T07:01:52.092Z,64.00
2018-09-27T07:04:20.654Z,63.50
2018-09-27T07:06:49.302Z,64.60
2018-09-27T07:09:17.902Z,63.40
2018-09-27T07:11:46.511Z,65.10
2018-09-27T07:14:15.104Z,63.90
2018-09-27T07:16:43.715Z,63.60
2018-09-27T07:19:12.641Z,63.40
2018-09-27T07:21:41.226Z,64.40
2018-09-27T07:24:09.807Z,65.10
2018-09-27T07:26:38.729Z,65.10
2018-09-27T07:29:07.309Z,64.70
2018-09-27T07:31:35.889Z,64.50
2018-09-27T07:34:04.498Z,65.00
2018-09-27T07:36:33.107Z,65.50
2018-09-27T07:39:01.696Z,65.20
2018-09-27T07:41:30.259Z,65.60
2018-09-27T07:43:58.830Z,65.00
2018-09-27T07:46:27.391Z,64.90
2018-09-27T07:48:55.982Z,65.40
2018-09-27T07:51:24.571Z,64.70
2018-09-27T07:53:53.206Z,64.50
2018-09-27T07:56:22.115Z,65.00
2018-09-27T07:58:50.722Z,65.70
2018-09-27T08:01:19.290Z,64.60
2018-09-27T08:03:47.896Z,65.60
2018-09-27T08:06:16.499Z,65.60
2018-09-27T08:08:45.772Z,64.50
2018-09-27T08:11:14.410Z,65.00
2018-09-27T08:13:42.962Z,65.10
2018-09-27T08:16:11.521Z,65.10
2018-09-27T08:18:40.094Z,65.00
2018-09-27T08:21:08.790Z,65.30
2018-09-27T08:23:37.365Z,63.60
2018-09-27T08:26:05.977Z,63.90
2018-09-27T08:28:34.593Z,64.90
2018-09-27T08:31:03.206Z,64.10
2018-09-27T08:33:32.100Z,64.20
2018-09-27T08:36:00.692Z,65.10
2018-09-27T08:38:29.650Z,65.20
2018-09-27T08:40:58.198Z,65.00
2018-09-27T08:43:26.805Z,65.80
2018-09-27T08:45:55.511Z,65.10
2018-09-27T08:48:23.985Z,65.40
2018-09-27T08:50:52.593Z,65.60
2018-09-27T08:53:21.279Z,64.50
2018-09-27T08:55:49.923Z,65.40
2018-09-27T08:58:18.490Z,66.10
2018-09-27T09:00:47.387Z,65.60
2018-09-27T09:03:15.981Z,65.40
2018-09-27T09:05:44.574Z,65.70
2018-09-27T09:08:13.834Z,66.20
2018-09-27T09:10:42.430Z,66.20
2018-09-27T09:13:11.034Z,65.00
2018-09-27T09:15:39.641Z,64.90
2018-09-27T09:18:08.227Z,65.40
2018-09-27T09:20:37.022Z,65.50
2018-09-27T09:23:05.657Z,65.60
2018-09-27T09:25:34.852Z,64.50
2018-09-27T09:28:03.403Z,65.60
2018-09-27T09:30:32.018Z,66.00
2018-09-27T09:33:00.583Z,65.80
2018-09-27T09:35:29.220Z,65.50
2018-09-27T09:37:57.785Z,65.20
2018-09-27T09:40:26.382Z,64.70
2018-09-27T09:42:54.947Z,64.90
2018-09-27T09:45:23.543Z,64.80
2018-09-27T09:47:52.107Z,65.60
2018-09-27T09:50:20.702Z,65.10
2018-09-27T09:52:49.290Z,65.30
2018-09-27T09:55:17.866Z,65.60
2018-09-27T09:57:46.444Z,63.50
2018-09-27T10:00:15.325Z,64.00
2018-09-27T10:02:43.918Z,64.40
2018-09-27T10:05:12.519Z,64.50
2018-09-27T10:07:41.117Z,64.10
2018-09-27T10:10:09.774Z,63.40
2018-09-27T10:12:38.382Z,63.20
2018-09-27T10:15:06.993Z,62.90
2018-09-27T10:17:35.890Z,63.70
2018-09-27T10:20:04.566Z,64.10
2018-09-27T10:22:33.142Z,62.50
2018-09-27T10:25:02.078Z,63.20
2018-09-27T10:27:30.719Z,64.10
2018-09-27T10:29:59.290Z,63.50
2018-09-27T10:32:27.888Z,62.60
2018-09-27T10:34:56.497Z,63.40
2018-09-27T10:37:25.094Z,63.10
2018-09-27T10:39:54.451Z,62.40
2018-09-27T10:42:23.049Z,62.70
2018-09-27T10:44:51.652Z,64.40
2018-09-27T10:47:20.237Z,64.50
2018-09-27T10:49:49.109Z,62.90
2018-09-27T10:52:17.699Z,63.90
2018-09-27T10:54:46.322Z,63.80
2018-09-27T10:57:15.005Z,63.40
2018-09-27T10:59:43.599Z,64.00
2018-09-27T11:02:12.162Z,62.90
2018-09-27T11:04:40.761Z,62.20
2018-09-27T11:07:09.326Z,62.80
2018-09-27T11:09:37.918Z,62.50
2018-09-27T11:12:06.667Z,63.40
2018-09-27T11:14:35.363Z,63.20
2018-09-27T11:17:03.922Z,62.70
2018-09-27T11:19:32.867Z,63.00
2018-09-27T11:22:01.492Z,63.70
2018-09-27T11:24:30.086Z,63.60
2018-09-27T11:26:58.661Z,63.40
2018-09-27T11:29:32.726Z,62.90
2018-09-27T11:32:06.702Z,64.00
2018-09-27T11:34:35.263Z,63.30
2018-09-27T11:37:03.830Z,62.80
2018-09-27T11:39:32.423Z,61.70
2018-09-27T11:42:01.025Z,61.30
2018-09-27T11:44:29.610Z,62.40
2018-09-27T11:46:58.217Z,61.50
2018-09-27T11:49:26.925Z,61.90
2018-09-27T11:51:55.425Z,61.80
2018-09-27T11:54:24.027Z,61.60
2018-09-27T11:56:52.943Z,62.60
2018-09-27T11:59:21.534Z,61.80
2018-09-27T12:01:50.161Z,60.60
2018-09-27T12:04:18.734Z,61.60
2018-09-27T12:06:47.411Z,60.70
2018-09-27T12:09:15.958Z,61.40
2018-09-27T12:11:44.580Z,62.10
2018-09-27T12:14:13.913Z,62.10
2018-09-27T12:16:42.554Z,62.60
2018-09-27T12:19:11.133Z,61.70
2018-09-27T12:21:39.739Z,62.50
2018-09-27T12:24:08.310Z,62.10
2018-09-27T12:26:36.896Z,62.40
2018-09-27T12:29:05.619Z,62.80
2018-09-27T12:31:34.236Z,62.10
2018-09-27T12:34:02.880Z,62.80
2018-09-27T12:36:31.426Z,63.00
2018-09-27T12:39:00.132Z,63.70
2018-09-27T12:41:28.718Z,64.30
2018-09-27T12:43:57.264Z,64.60
2018-09-27T12:46:25.883Z,64.80
2018-09-27T12:48:54.492Z,65.90
2018-09-27T12:51:23.624Z,66.40
2018-09-27T12:53:52.238Z,67.20
2018-09-27T12:56:20.853Z,67.90
2018-09-27T12:58:49.475Z,68.00
2018-09-27T13:01:18.095Z,67.00
2018-09-27T13:03:46.682Z,66.70
2018-09-27T13:06:15.348Z,66.60
2018-09-27T13:08:44.263Z,66.10
2018-09-27T13:11:12.784Z,65.70
2018-09-27T13:13:41.342Z,65.90
2018-09-27T13:16:10.914Z,66.60
2018-09-27T13:18:39.430Z,67.00
2018-09-27T13:21:08.326Z,65.70
2018-09-27T13:23:36.920Z,65.40
2018-09-27T13:26:05.562Z,66.80
2018-09-27T13:28:34.179Z,67.10
2018-09-27T13:31:02.799Z,66.50
2018-09-27T13:33:31.387Z,66.60
2018-09-27T13:36:00.071Z,66.20
2018-09-27T13:38:29.219Z,66.20
2018-09-27T13:40:57.823Z,65.90
2018-09-27T13:43:26.887Z,65.30
2018-09-27T13:45:55.463Z,65.10
2018-09-27T13:48:24.051Z,65.10
2018-09-27T13:50:52.653Z,64.80
2018-09-27T13:53:21.281Z,65.00
2018-09-27T13:55:49.885Z,64.10
2018-09-27T13:58:18.479Z,65.00
2018-09-27T14:00:47.035Z,64.50
2018-09-27T14:03:15.623Z,64.80
2018-09-27T14:05:44.175Z,64.70
2018-09-27T14:08:12.779Z,64.20
2018-09-27T14:10:41.363Z,64.50
2018-09-27T14:13:09.941Z,66.60
2018-09-27T14:15:38.525Z,66.20
2018-09-27T14:18:07.607Z,66.40
2018-09-27T14:20:36.192Z,66.90
2018-09-27T14:23:04.797Z,66.90
2018-09-27T14:25:33.672Z,66.20
2018-09-27T14:28:02.250Z,66.00
2018-09-27T14:30:30.806Z,65.80
2018-09-27T14:32:59.387Z,66.60
2018-09-27T14:35:27.979Z,67.80
2018-09-27T14:37:56.571Z,67.40
2018-09-27T14:40:25.180Z,67.30
2018-09-27T14:42:53.767Z,68.90
2018-09-27T14:45:22.370Z,69.00
2018-09-27T14:47:51.050Z,67.80
2018-09-27T14:50:19.678Z,68.40
2018-09-27T14:52:48.265Z,68.20
2018-09-27T14:55:17.132Z,68.70
2018-09-27T14:57:45.709Z,70.60
2018-09-27T15:00:14.312Z,70.80
2018-09-27T15:02:42.907Z,71.00
2018-09-27T15:05:11.493Z,71.00
2018-09-27T15:07:40.352Z,70.50
2018-09-27T15:10:08.954Z,71.50
2018-09-27T15:12:37.652Z,70.00
2018-09-27T15:15:06.704Z,71.00
2018-09-27T15:17:35.517Z,71.60
2018-09-27T15:20:04.158Z,71.50
2018-09-27T15:22:32.941Z,71.30
2018-09-27T15:25:01.544Z,71.50
2018-09-27T15:27:30.144Z,71.90
2018-09-27T15:30:01.823Z,72.40
2018-09-27T15:32:30.877Z,73.10
2018-09-27T15:34:59.519Z,73.10
2018-09-27T15:37:28.281Z,72.40
2018-09-27T15:39:56.893Z,72.30
2018-09-27T15:42:25.475Z,73.00
2018-09-27T15:44:54.065Z,74.20
2018-09-27T15:47:22.669Z,74.10
2018-09-27T15:49:51.254Z,74.40
2018-09-27T15:52:19.935Z,75.20
2018-09-27T15:54:48.491Z,75.10
2018-09-27T15:57:17.082Z,75.30
2018-09-27T15:59:45.659Z,75.90
2018-09-27T16:02:14.231Z,75.80
2018-09-27T16:04:42.826Z,76.10
2018-09-27T16:07:11.470Z,77.10
2018-09-27T16:09:40.040Z,77.00
2018-09-27T16:12:08.648Z,77.10
2018-09-27T16:14:38.863Z,77.70
2018-09-27T16:17:07.400Z,77.90
2018-09-27T16:19:36.010Z,78.50
2018-09-27T16:22:04.727Z,78.50
2018-09-27T16:24:33.263Z,79.20
2018-09-27T16:27:01.866Z,79.40
2018-09-27T16:29:30.792Z,80.00
2018-09-27T16:31:59.355Z,80.20
2018-09-27T16:34:28.622Z,80.40
2018-09-27T16:36:57.517Z,80.70
2018-09-27T16:39:26.112Z,81.10
2018-09-27T16:41:54.710Z,81.30
2018-09-27T16:44:23.316Z,81.70
2018-09-27T16:46:51.906Z,82.40
2018-09-27T16:49:20.483Z,83.20
2018-09-27T16:51:49.090Z,83.30
2018-09-27T16:54:17.721Z,83.70
2018-09-27T16:56:46.386Z,84.00
2018-09-27T16:59:14.993Z,84.50
2018-09-27T17:01:43.594Z,84.80
2018-09-27T17:04:12.178Z,85.60
2018-09-27T17:06:40.761Z,85.80
2018-09-27T17:09:10.086Z,86.30
2018-09-27T17:11:38.659Z,86.40
2018-09-27T17:14:07.545Z,87.10
2018-09-27T17:16:36.137Z,87.20
2018-09-27T17:19:05.091Z,88.00
2018-09-27T17:21:33.758Z,87.80
2018-09-27T17:24:02.341Z,88.00
2018-09-27T17:26:30.962Z,88.30
2018-09-27T17:28:59.549Z,88.60
2018-09-27T17:31:28.153Z,89.00
2018-09-27T17:33:56.762Z,89.30
2018-09-27T17:36:25.765Z,89.60
2018-09-27T17:38:54.370Z,89.60
2018-09-27T17:41:23.216Z,89.70
2018-09-27T17:43:51.813Z,89.60
2018-09-27T17:46:20.418Z,89.70
2018-09-27T17:48:49.002Z,89.80
2018-09-27T17:51:17.567Z,90.00
2018-09-27T17:53:46.147Z,90.10
2018-09-27T17:56:14.735Z,90.10
2018-09-27T17:58:43.571Z,90.20
2018-09-27T18:01:12.019Z,90.30
2018-09-27T18:03:40.591Z,90.40
2018-09-27T18:06:09.206Z,90.60
2018-09-27T18:08:38.084Z,90.60
2018-09-27T18:11:06.690Z,90.40
2018-09-27T18:13:35.916Z,90.80
2018-09-27T18:16:04.537Z,90.80
2018-09-27T18:18:33.096Z,90.90
2018-09-27T18:21:01.710Z,91.10
2018-09-27T18:23:30.287Z,91.20
2018-09-27T18:25:58.870Z,91.20
2018-09-27T18:28:27.820Z,91.30
2018-09-27T18:30:56.418Z,91.30
2018-09-27T18:33:24.980Z,91.40
2018-09-27T18:35:53.606Z,91.40
2018-09-27T18:38:22.215Z,91.40
2018-09-27T18:40:51.268Z,91.60
2018-09-27T18:43:19.889Z,91.70
2018-09-27T18:45:49.065Z,91.70
2018-09-27T18:48:17.655Z,91.70
2018-09-27T18:50:46.357Z,91.80
2018-09-27T18:53:14.918Z,91.90
2018-09-27T18:55:43.542Z,91.90
2018-09-27T18:58:12.214Z,91.90
2018-09-27T19:00:40.749Z,92.00
2018-09-27T19:03:09.315Z,91.90
2018-09-27T19:05:38.065Z,91.80
2018-09-27T19:08:06.657Z,91.80
2018-09-27T19:10:35.242Z,92.20
2018-09-27T19:13:03.816Z,92.00
2018-09-27T19:15:32.416Z,92.10
2018-09-27T19:18:01.024Z,92.10
2018-09-27T19:20:29.807Z,92.40
2018-09-27T19:22:58.394Z,92.20
2018-09-27T19:25:27.010Z,92.20
2018-09-27T19:27:55.626Z,92.20
2018-09-27T19:30:24.232Z,92.30
2018-09-27T19:32:52.787Z,92.30
2018-09-27T19:35:21.386Z,92.20
2018-09-27T19:37:50.242Z,92.40
2018-09-27T19:40:18.937Z,92.70
2018-09-27T19:42:47.542Z,92.40
2018-09-27T19:45:16.127Z,92.50
2018-09-27T19:47:44.699Z,92.40
2018-09-27T19:50:13.258Z,92.40
2018-09-27T19:52:41.823Z,92.40
2018-09-27T19:55:10.390Z,92.60
2018-09-27T19:57:39.028Z,92.50
2018-09-27T20:00:07.633Z,92.60
2018-09-27T20:02:36.283Z,92.60
2018-09-27T20:05:05.311Z,93.00
2018-09-27T20:07:33.940Z,92.90
2018-09-27T20:10:02.579Z,92.80
2018-09-27T20:15:21.524Z,92.80
2018-09-27T20:17:50.059Z,92.90
2018-09-27T20:20:18.603Z,93.00
2018-09-27T20:22:47.160Z,92.90
2018-09-27T20:25:15.657Z,93.00
2018-09-27T20:27:44.165Z,93.00
2018-09-27T20:30:12.669Z,93.10
2018-09-27T20:32:41.487Z,93.40
2018-09-27T20:35:09.986Z,93.00
2018-09-27T20:37:38.835Z,93.20
2018-09-27T20:40:07.374Z,93.20
2018-09-27T20:42:35.842Z,93.20
2018-09-27T20:45:04.379Z,93.10
2018-09-27T20:47:32.882Z,93.00
2018-09-27T20:50:01.306Z,93.10
2018-09-27T20:52:29.762Z,93.10
2018-09-27T20:54:58.208Z,93.20
2018-09-27T20:57:26.652Z,93.20
2018-09-27T20:59:55.075Z,93.20
2018-09-27T21:02:24.025Z,93.20
2018-09-27T21:04:52.461Z,93.20
2018-09-27T21:07:20.953Z,93.50
2018-09-27T21:09:49.373Z,93.30
2018-09-27T21:12:17.831Z,93.30
2018-09-27T21:14:46.289Z,93.40
2018-09-27T21:17:15.091Z,93.40
2018-09-27T21:19:43.557Z,93.40
2018-09-27T21:22:11.998Z,93.30
2018-09-27T21:24:40.453Z,93.40
2018-09-27T21:27:08.897Z,93.40
2018-09-27T21:29:37.344Z,93.40
2018-09-27T21:32:05.838Z,93.50
2018-09-27T21:34:34.249Z,93.40
2018-09-27T21:37:02.694Z,93.30
2018-09-27T21:39:31.126Z,93.10
2018-09-27T21:41:59.551Z,93.10
2018-09-27T21:44:27.998Z,93.10
2018-09-27T21:46:56.466Z,92.90
2018-09-27T21:49:25.213Z,92.80
2018-09-27T21:51:53.655Z,93.20
2018-09-27T21:54:22.159Z,93.00
2018-09-27T21:56:50.603Z,92.90
2018-09-27T21:59:19.305Z,92.90
2018-09-27T22:04:38.335Z,92.70
2018-09-27T22:07:07.292Z,92.70
2018-09-27T22:09:35.879Z,92.80
2018-09-27T22:14:55.346Z,92.80
2018-09-27T22:17:23.848Z,92.90
2018-09-27T22:19:52.330Z,92.90
2018-09-27T22:22:20.811Z,92.90
2018-09-27T22:24:49.281Z,92.70
2018-09-27T22:27:17.755Z,92.80
2018-09-27T22:29:46.593Z,92.70
2018-09-27T22:32:15.048Z,92.70
2018-09-27T22:34:43.541Z,92.40
2018-09-27T22:37:12.027Z,92.50
2018-09-27T22:39:40.519Z,92.70
2018-09-27T22:42:08.989Z,92.70
2018-09-27T22:44:37.481Z,92.80
2018-09-27T22:47:06.001Z,92.80
2018-09-27T22:49:34.501Z,92.70
2018-09-27T22:52:03.008Z,92.50
2018-09-27T22:54:31.783Z,92.60
2018-09-27T22:57:00.263Z,92.70
2018-09-27T22:59:28.766Z,92.70
2018-09-27T23:01:57.234Z,92.70
2018-09-27T23:04:25.725Z,92.60
2018-09-27T23:06:54.183Z,92.60
2018-09-27T23:09:22.679Z,92.60
2018-09-27T23:11:51.443Z,92.80
2018-09-27T23:14:19.941Z,92.50
2018-09-27T23:16:48.396Z,92.50
2018-09-27T23:19:17.002Z,92.60
2018-09-27T23:21:45.478Z,92.50
2018-09-27T23:24:14.126Z,92.50
2018-09-27T23:26:42.605Z,92.50
2018-09-27T23:29:11.151Z,92.40
2018-09-27T23:31:39.645Z,92.40
2018-09-27T23:34:08.150Z,92.30
2018-09-27T23:36:36.883Z,92.60
2018-09-27T23:39:06.975Z,92.30
2018-09-27T23:41:35.455Z,92.40
2018-09-27T23:44:03.992Z,92.30
2018-09-27T23:46:32.449Z,92.30
2018-09-27T23:49:00.924Z,92.50
2018-09-27T23:51:29.678Z,92.30
2018-09-27T23:53:58.311Z,92.30
2018-09-27T23:56:27.249Z,92.30
2018-09-27T23:58:55.826Z,92.40
